Time;durP1;ratioP1;P1;durP2;ratioP2;P2;SDS_P1;SDS_P2;PMS_P1;PMS_P2;Temp;Humidity;BMP_temperature;BMP_pressure;BME280_temperature;BME280_humidity;BME280_pressure;Samples;Min_cycle;Max_cycle;Signal;HPM_P1;HPM_P2
2022/04/03 00:02:13;;;;;;;4.60;3.67;;;;;;;1.96;59.13;101922.44;5074695;28;20082;-41
2022/04/03 00:04:39;;;;;;;4.47;3.63;;;;;;;1.94;58.51;101930.47;5074772;28;20025;-41
2022/04/03 00:07:05;;;;;;;5.25;3.65;;;;;;;1.82;58.71;101918.06;5074630;28;20480;-41
2022/04/03 00:09:30;;;;;;;5.40;3.00;;;;;;;1.92;59.29;101934.19;5073318;28;20042;-42
2022/04/03 00:11:56;;;;;;;6.93;3.80;;;;;;;1.83;59.32;101914.44;5073467;28;20029;-40
2022/04/03 00:14:22;;;;;;;6.75;4.07;;;;;;;1.81;59.90;101923.44;5073114;28;20036;-41
2022/04/03 00:16:48;;;;;;;6.93;4.68;;;;;;;1.83;60.25;101926.84;5073107;28;20541;-43
2022/04/03 00:19:13;;;;;;;8.05;4.20;;;;;;;1.84;60.17;101928.53;5074739;28;20021;-41
2022/04/03 00:21:39;;;;;;;8.15;4.03;;;;;;;1.74;60.26;101930.94;5073111;28;20028;-42
2022/04/03 00:24:05;;;;;;;6.75;3.65;;;;;;;1.75;60.61;101940.59;5090249;28;20123;-45
2022/04/03 00:26:31;;;;;;;6.13;3.78;;;;;;;1.65;60.89;101935.00;5074387;28;20032;-41
2022/04/03 00:28:57;;;;;;;6.15;4.03;;;;;;;1.65;60.10;101939.47;5073695;28;20111;-41
2022/04/03 00:31:23;;;;;;;4.88;3.75;;;;;;;1.67;60.56;101934.94;5073099;28;20033;-46
2022/04/03 00:33:49;;;;;;;6.20;4.00;;;;;;;1.59;60.92;101938.06;5073699;28;20028;-42
2022/04/03 00:36:15;;;;;;;6.30;4.03;;;;;;;1.54;60.44;101937.50;5074007;28;20058;-41
2022/04/03 00:38:41;;;;;;;6.70;3.78;;;;;;;1.46;60.71;101930.06;5074298;28;20028;-42
2022/04/03 00:41:08;;;;;;;6.50;4.10;;;;;;;1.36;60.49;101918.38;5073860;28;20177;-42
2022/04/03 00:43:33;;;;;;;7.05;3.30;;;;;;;1.44;60.56;101941.72;5074048;28;20025;-42
2022/04/03 00:46:03;;;;;;;6.20;3.92;;;;;;;1.38;60.72;101936.81;5074181;28;20035;-41
2022/04/03 00:48:30;;;;;;;7.30;3.50;;;;;;;1.27;62.01;101933.03;5074178;28;20038;-41
2022/04/03 00:50:56;;;;;;;4.25;3.10;;;;;;;1.28;61.32;101934.75;5072861;28;20033;-42
2022/04/03 00:53:21;;;;;;;3.97;3.00;;;;;;;1.20;61.59;101928.22;5073164;28;20025;-41
2022/04/03 00:55:47;;;;;;;4.50;2.90;;;;;;;1.26;60.56;101938.41;5073613;28;20048;-41
2022/04/03 00:58:13;;;;;;;3.20;2.72;;;;;;;1.18;61.29;101933.63;5074333;28;20036;-46
2022/04/03 01:00:40;;;;;;;4.57;2.80;;;;;;;1.10;61.98;101928.81;5056153;28;20028;-41
2022/04/03 01:03:06;;;;;;;5.32;3.22;;;;;;;1.15;61.68;101939.97;5073573;28;20027;-42
2022/04/03 01:05:32;;;;;;;5.88;3.28;;;;;;;1.13;61.94;101939.22;5073717;28;20035;-41
2022/04/03 01:07:57;;;;;;;4.93;2.75;;;;;;;1.10;61.11;101935.91;5089378;28;20037;-42
2022/04/03 01:10:23;;;;;;;3.05;2.75;;;;;;;1.09;61.18;101936.84;5073960;28;20021;-41
2022/04/03 01:12:49;;;;;;;7.10;2.92;;;;;;;0.99;62.25;101933.91;5073666;28;20377;-41
2022/04/03 01:15:17;;;;;;;3.42;2.95;;;;;;;0.86;62.00;101915.31;5073527;28;20427;-41
2022/04/03 01:17:43;;;;;;;4.68;2.78;;;;;;;0.97;61.87;101933.16;5073321;28;20025;-42
2022/04/03 01:20:10;;;;;;;3.15;2.70;;;;;;;0.86;62.81;101919.75;5073227;28;20036;-42
2022/04/03 01:22:37;;;;;;;4.75;2.55;;;;;;;0.92;62.32;101936.06;5072806;28;20031;-42
2022/04/03 01:25:04;;;;;;;5.38;2.88;;;;;;;0.88;63.03;101924.00;5073711;28;20095;-41
2022/04/03 01:27:30;;;;;;;5.47;2.80;;;;;;;0.82;62.20;101921.75;5073063;28;20033;-43
2022/04/03 01:29:57;;;;;;;4.75;3.00;;;;;;;0.81;62.75;101927.97;5073524;28;20078;-43
2022/04/03 01:32:24;;;;;;;4.07;2.25;;;;;;;0.82;62.76;101932.31;5073722;28;20029;-42
2022/04/03 01:34:50;;;;;;;3.63;2.63;;;;;;;0.79;62.70;101936.94;5072667;28;20054;-43
2022/04/03 01:37:16;;;;;;;4.13;2.50;;;;;;;0.75;62.75;101936.28;5072758;28;20033;-41
2022/04/03 01:39:41;;;;;;;3.90;2.70;;;;;;;0.71;63.28;101940.91;5073352;28;20024;-41
2022/04/03 01:42:07;;;;;;;2.80;2.45;;;;;;;0.63;63.31;101926.44;5075355;28;20027;-41
2022/04/03 01:44:33;;;;;;;5.22;2.83;;;;;;;0.42;63.26;101900.34;5077202;28;20111;-44
2022/04/03 01:46:59;;;;;;;3.70;2.70;;;;;;;0.63;63.78;101939.66;5077294;28;20388;-41
2022/04/03 01:49:25;;;;;;;3.50;2.40;;;;;;;0.59;63.79;101936.34;5078078;28;20376;-41
2022/04/03 01:51:50;;;;;;;5.28;2.65;;;;;;;0.57;63.53;101933.78;5078698;28;20028;-44
2022/04/03 01:54:16;;;;;;;4.68;2.72;;;;;;;0.58;64.28;101930.22;5077698;28;20033;-42
2022/04/03 01:56:42;;;;;;;3.63;2.35;;;;;;;0.69;63.55;101924.28;5078334;28;20052;-41
2022/04/03 01:59:08;;;;;;;4.75;2.30;;;;;;;0.64;63.52;101941.38;5077236;28;20584;-42
2022/04/03 02:01:34;;;;;;;4.95;2.63;;;;;;;0.49;64.19;101933.41;5076025;28;20033;-41
2022/04/03 02:04:03;;;;;;;5.85;3.38;;;;;;;0.42;64.58;101941.78;5075917;28;20031;-43
2022/04/03 02:06:30;;;;;;;2.45;2.25;;;;;;;0.41;65.03;101934.78;5076795;28;20036;-41
2022/04/03 02:08:55;;;;;;;7.15;2.55;;;;;;;0.39;64.73;101916.41;5077248;28;20029;-42
2022/04/03 02:11:21;;;;;;;3.85;2.10;;;;;;;0.51;64.33;101928.03;5075759;28;20024;-41
2022/04/03 02:13:47;;;;;;;4.00;2.40;;;;;;;0.45;64.68;101916.03;5076478;28;20032;-41
2022/04/03 02:16:15;;;;;;;4.78;3.00;;;;;;;0.41;65.17;101924.22;5075877;28;20477;-41
2022/04/03 02:18:41;;;;;;;2.72;2.20;;;;;;;0.34;65.54;101932.53;5076776;28;20064;-44
2022/04/03 02:21:07;;;;;;;2.67;2.42;;;;;;;0.19;64.86;101902.56;5077391;28;20047;-43
2022/04/03 02:23:32;;;;;;;6.43;3.03;;;;;;;0.36;65.42;101919.22;5059016;28;20029;-46
2022/04/03 02:25:58;;;;;;;4.32;2.92;;;;;;;0.34;65.89;101899.97;5076751;28;20113;-42
2022/04/03 02:28:24;;;;;;;3.40;2.42;;;;;;;0.45;65.62;101920.47;5076904;28;20101;-45
2022/04/03 02:30:50;;;;;;;3.22;2.78;;;;;;;0.51;65.38;101915.66;5076385;28;20028;-41
2022/04/03 02:33:15;;;;;;;3.83;2.70;;;;;;;0.57;64.63;101920.56;5075386;28;20029;-41
2022/04/03 02:35:41;;;;;;;4.35;2.53;;;;;;;0.54;65.45;101899.63;5075351;28;20477;-41
2022/04/03 02:38:07;;;;;;;4.50;2.22;;;;;;;0.70;64.83;101915.38;5075228;28;20480;-42
2022/04/03 02:40:33;;;;;;;5.40;2.67;;;;;;;0.61;64.09;101899.25;5075921;28;20078;-41
2022/04/03 02:42:59;;;;;;;5.60;2.30;;;;;;;0.61;63.94;101908.00;5076425;28;20025;-41
2022/04/03 02:45:25;;;;;;;3.03;2.45;;;;;;;0.48;64.94;101904.41;5076265;28;20024;-42
2022/04/03 02:47:53;;;;;;;3.17;2.47;;;;;;;0.46;64.73;101915.06;5076454;28;20024;-41
2022/04/03 02:50:21;;;;;;;4.18;2.83;;;;;;;0.27;65.49;101906.56;5075913;28;20457;-41
2022/04/03 02:52:48;;;;;;;5.38;2.85;;;;;;;0.28;65.26;101919.69;5074561;28;20032;-42
2022/04/03 02:55:14;;;;;;;6.50;2.63;;;;;;;0.22;65.42;101914.75;5074585;28;20037;-42
2022/04/03 02:57:39;;;;;;;3.88;2.80;;;;;;;0.25;65.32;101919.00;5074534;28;20053;-42
2022/04/03 03:00:06;;;;;;;5.53;2.70;;;;;;;0.19;65.84;101917.59;5076198;28;20024;-42
2022/04/03 03:02:32;;;;;;;4.25;2.45;;;;;;;0.16;66.23;101918.59;5075994;28;20021;-42
2022/04/03 03:04:58;;;;;;;3.05;2.75;;;;;;;0.11;66.30;101915.41;5091821;28;20044;-44
2022/04/03 03:07:24;;;;;;;3.70;2.92;;;;;;;0.02;66.15;101910.66;5075722;28;20027;-41
2022/04/03 03:09:50;;;;;;;5.28;2.40;;;;;;;0.01;66.80;101922.16;5075580;28;20024;-41
2022/04/03 03:12:17;;;;;;;3.95;2.90;;;;;;;-0.03;67.16;101920.63;5076005;28;20377;-42
2022/04/03 03:14:43;;;;;;;3.35;3.05;;;;;;;0.05;66.89;101928.09;5075607;28;20035;-42
2022/04/03 03:17:09;;;;;;;4.25;3.03;;;;;;;0.12;66.63;101929.44;5075335;28;20028;-41
2022/04/03 03:19:34;;;;;;;3.03;2.40;;;;;;;0.12;66.62;101922.38;5074423;28;20040;-41
2022/04/03 03:22:00;;;;;;;3.28;2.40;;;;;;;0.16;66.29;101912.47;5075480;28;20028;-42
2022/04/03 03:24:26;;;;;;;7.78;2.67;;;;;;;0.11;66.63;101928.59;5075642;28;20031;-42
2022/04/03 03:26:51;;;;;;;4.13;2.90;;;;;;;0.09;67.52;101919.91;5075539;28;20440;-41
2022/04/03 03:29:17;;;;;;;4.60;2.70;;;;;;;0.06;67.43;101913.97;5075088;28;20047;-42
2022/04/03 03:31:43;;;;;;;3.78;2.53;;;;;;;0.02;67.75;101915.06;5074403;28;20032;-41
2022/04/03 03:34:08;;;;;;;6.18;3.08;;;;;;;-0.04;67.18;101917.16;5075275;28;20041;-41
2022/04/03 03:36:34;;;;;;;5.78;3.33;;;;;;;-0.12;67.36;101918.53;5075058;28;20033;-41
2022/04/03 03:39:00;;;;;;;6.43;2.85;;;;;;;-0.08;68.11;101926.16;5075146;28;20033;-41
2022/04/03 03:41:26;;;;;;;6.55;2.95;;;;;;;-0.12;67.68;101915.88;5075575;28;20032;-41
2022/04/03 03:43:52;;;;;;;5.07;2.97;;;;;;;-0.16;68.48;101911.72;5075032;28;20028;-41
2022/04/03 03:46:18;;;;;;;4.50;3.45;;;;;;;-0.20;68.28;101908.41;5075185;28;20039;-41
2022/04/03 03:48:43;;;;;;;2.65;2.20;;;;;;;-0.17;68.05;101916.13;5074102;28;20029;-42
2022/04/03 03:51:09;;;;;;;3.78;3.08;;;;;;;-0.21;68.80;101919.88;5075333;28;20039;-41
2022/04/03 03:53:35;;;;;;;3.80;2.88;;;;;;;-0.25;68.81;101907.81;5090541;28;20040;-42
2022/04/03 03:56:01;;;;;;;4.57;3.10;;;;;;;-0.17;68.21;101904.72;5073916;28;20056;-41
2022/04/03 03:58:27;;;;;;;3.20;2.80;;;;;;;-0.16;68.71;101906.44;5075332;28;20028;-41
2022/04/03 04:00:52;;;;;;;7.10;3.13;;;;;;;-0.23;67.89;101905.94;5074955;28;20047;-41
2022/04/03 04:03:18;;;;;;;7.43;3.10;;;;;;;-0.33;68.37;101902.97;5074250;28;20102;-41
2022/04/03 04:05:45;;;;;;;5.00;3.03;;;;;;;-0.42;68.71;101904.34;5073970;28;20024;-42
2022/04/03 04:08:11;;;;;;;4.63;3.05;;;;;;;-0.50;69.27;101896.00;5074861;28;20465;-41
2022/04/03 04:10:36;;;;;;;4.68;3.00;;;;;;;-0.51;68.33;101904.00;5040233;28;20136;-41
2022/04/03 04:13:03;;;;;;;4.35;2.88;;;;;;;-0.43;69.22;101918.47;5074497;28;20032;-41
2022/04/03 04:15:30;;;;;;;4.25;2.47;;;;;;;-0.49;69.29;101915.31;5074594;28;20369;-41
2022/04/03 04:17:56;;;;;;;3.25;2.95;;;;;;;-0.52;69.39;101918.13;5073277;28;20032;-41
2022/04/03 04:20:23;;;;;;;4.25;3.10;;;;;;;-0.60;68.86;101908.84;5074479;28;20380;-41
2022/04/03 04:22:50;;;;;;;3.88;2.97;;;;;;;-0.55;68.67;101915.69;5090069;28;20029;-41
2022/04/03 04:25:17;;;;;;;4.85;3.15;;;;;;;-0.60;68.87;101922.03;5074583;28;20060;-41
2022/04/03 04:27:44;;;;;;;6.03;3.20;;;;;;;-0.62;69.05;101916.00;5073786;28;20032;-41
2022/04/03 04:30:11;;;;;;;4.07;3.25;;;;;;;-0.63;69.10;101922.22;5074135;28;20489;-41
2022/04/03 04:32:37;;;;;;;4.78;3.22;;;;;;;-0.66;69.18;101911.84;5074178;28;20075;-41
2022/04/03 04:35:04;;;;;;;4.25;3.38;;;;;;;-0.60;68.76;101918.56;5074231;28;20056;-41
2022/04/03 04:37:29;;;;;;;5.85;3.33;;;;;;;-0.64;69.87;101917.88;5089644;28;20052;-41
2022/04/03 04:39:56;;;;;;;3.20;2.90;;;;;;;-0.63;68.89;101922.22;5074117;28;20534;-41
2022/04/03 04:42:22;;;;;;;5.28;2.90;;;;;;;-0.65;69.20;101916.19;5073943;28;20060;-42
2022/04/03 04:44:48;;;;;;;5.25;3.22;;;;;;;-0.67;69.66;101920.69;5089770;28;20097;-42
2022/04/03 04:47:14;;;;;;;3.85;3.22;;;;;;;-0.75;69.02;101914.97;5073721;28;20040;-42
2022/04/03 04:49:39;;;;;;;3.58;3.28;;;;;;;-0.69;69.39;101927.81;5089616;28;20025;-41
2022/04/03 04:52:06;;;;;;;5.38;3.72;;;;;;;-0.78;69.71;101912.50;5073901;28;20078;-41
2022/04/03 04:54:32;;;;;;;3.95;3.55;;;;;;;-0.74;70.79;101921.97;5089675;28;20024;-41
2022/04/03 04:56:58;;;;;;;3.90;3.50;;;;;;;-0.75;69.85;101928.16;5073274;28;20439;-41
2022/04/03 04:59:24;;;;;;;5.70;4.10;;;;;;;-0.76;71.05;101923.84;5089838;28;20050;-42
2022/04/03 05:01:50;;;;;;;5.68;4.05;;;;;;;-0.79;70.89;101926.63;5073293;28;20116;-42
2022/04/03 05:04:16;;;;;;;9.95;3.60;;;;;;;-0.81;70.51;101923.25;5073654;28;20055;-42
2022/04/03 05:06:43;;;;;;;4.72;3.33;;;;;;;-0.82;70.62;101932.06;5073434;28;20358;-41
2022/04/03 05:09:09;;;;;;;4.47;3.80;;;;;;;-0.85;70.55;101927.81;5074057;28;20055;-41
2022/04/03 05:11:37;;;;;;;5.03;3.88;;;;;;;-0.84;69.79;101929.50;5072613;28;20537;-41
2022/04/03 05:14:03;;;;;;;4.18;3.35;;;;;;;-0.80;70.15;101931.06;5073509;28;20040;-41
2022/04/03 05:16:30;;;;;;;4.38;3.97;;;;;;;-0.83;70.31;101925.13;5091532;28;20111;-41
2022/04/03 05:18:56;;;;;;;4.25;3.85;;;;;;;-0.90;70.49;101915.81;5079119;28;20036;-41
2022/04/03 05:21:23;;;;;;;8.98;4.18;;;;;;;-0.87;70.39;101921.78;5080407;28;20495;-41
2022/04/03 05:23:49;;;;;;;3.95;3.58;;;;;;;-0.95;70.57;101909.94;5078748;28;20074;-41
2022/04/03 05:26:17;;;;;;;8.05;4.22;;;;;;;-0.87;70.17;101926.22;5080272;28;20031;-41
2022/04/03 05:28:43;;;;;;;6.72;4.00;;;;;;;-0.88;70.96;101929.78;5080103;28;20384;-41
2022/04/03 05:31:09;;;;;;;6.70;4.03;;;;;;;-0.94;70.73;101920.41;5080242;28;20111;-42
2022/04/03 05:33:35;;;;;;;4.97;4.15;;;;;;;-1.00;70.79;101928.66;5096333;28;20536;-42
2022/04/03 05:36:01;;;;;;;5.47;4.20;;;;;;;-1.03;70.84;101919.13;5080903;28;20028;-41
2022/04/03 05:38:27;;;;;;;4.82;4.15;;;;;;;-0.98;70.37;101932.91;5062346;28;20036;-41
2022/04/03 05:40:53;;;;;;;6.45;4.35;;;;;;;-0.93;70.94;101929.16;5080233;28;20445;-41
2022/04/03 05:43:18;;;;;;;6.80;4.72;;;;;;;-0.92;70.74;101931.72;5080415;28;20483;-42
2022/04/03 05:45:44;;;;;;;7.93;4.57;;;;;;;-0.99;70.80;101928.56;5078925;28;20034;-44
2022/04/03 05:48:10;;;;;;;5.18;4.53;;;;;;;-0.93;71.17;101927.38;5079022;28;20403;-46
2022/04/03 05:50:37;;;;;;;5.30;4.60;;;;;;;-0.96;71.10;101932.84;5080094;28;20099;-46
2022/04/03 05:53:03;;;;;;;5.03;4.57;;;;;;;-0.96;71.70;101940.75;5078802;28;20052;-44
2022/04/03 05:55:29;;;;;;;8.30;4.38;;;;;;;-0.93;70.54;101947.63;5097108;28;20043;-43
2022/04/03 05:57:55;;;;;;;5.43;4.78;;;;;;;-1.04;71.64;101930.59;5081756;28;20115;-41
2022/04/03 06:00:22;;;;;;;7.20;4.88;;;;;;;-0.92;71.07;101951.97;5079773;28;20029;-40
2022/04/03 06:02:51;;;;;;;6.75;5.15;;;;;;;-0.94;70.63;101943.31;5079990;28;20376;-41
2022/04/03 06:05:18;;;;;;;5.40;4.90;;;;;;;-0.94;70.45;101940.66;5080237;28;20153;-42
2022/04/03 06:07:44;;;;;;;5.70;4.72;;;;;;;-0.91;71.21;101954.53;5080385;28;20033;-44
2022/04/03 06:10:11;;;;;;;5.95;4.90;;;;;;;-0.94;71.04;101944.16;5078809;28;20025;-43
2022/04/03 06:12:37;;;;;;;5.47;4.93;;;;;;;-0.90;70.77;101939.56;5079983;28;20061;-47
2022/04/03 06:15:03;;;;;;;5.15;4.65;;;;;;;-0.83;71.86;101960.25;5079747;28;20040;-41
2022/04/03 06:17:29;;;;;;;7.72;5.55;;;;;;;-0.76;71.90;101957.25;5079770;28;20024;-41
2022/04/03 06:19:54;;;;;;;6.72;5.60;;;;;;;-0.67;70.85;101947.09;5080064;28;20028;-42
2022/04/03 06:22:20;;;;;;;5.43;4.90;;;;;;;-0.66;71.16;101955.84;5095562;28;20457;-42
2022/04/03 06:24:46;;;;;;;6.38;5.40;;;;;;;-0.60;71.37;101966.88;5080353;28;20028;-41
2022/04/03 06:27:12;;;;;;;5.95;5.35;;;;;;;-0.59;71.72;101950.13;5080188;28;20118;-41
2022/04/03 06:29:37;;;;;;;8.40;5.35;;;;;;;-0.48;71.59;101969.81;5075818;28;20068;-41
2022/04/03 06:32:04;;;;;;;6.47;5.05;;;;;;;-0.43;70.99;101965.13;5076076;28;20044;-41
2022/04/03 06:34:30;;;;;;;9.45;5.57;;;;;;;-0.32;71.40;101964.53;5075911;28;20036;-42
2022/04/03 06:36:55;;;;;;;11.90;5.53;;;;;;;-0.23;71.36;101972.78;5092468;28;20453;-42
2022/04/03 06:39:21;;;;;;;8.30;5.10;;;;;;;-0.16;71.02;101968.00;5076721;28;20041;-42
2022/04/03 06:41:47;;;;;;;8.30;5.10;;;;;;;-0.13;70.62;101966.97;5077295;28;20471;-41
2022/04/03 06:44:13;;;;;;;6.15;5.20;;;;;;;-0.08;70.28;101978.13;5076896;28;20029;-42
2022/04/03 06:46:38;;;;;;;7.28;5.15;;;;;;;-0.05;71.68;101970.88;5076843;28;20029;-41
2022/04/03 06:49:04;;;;;;;5.43;4.82;;;;;;;0.52;69.27;101974.66;5075731;28;20024;-41
2022/04/03 06:51:30;;;;;;;12.18;5.35;;;;;;;0.26;70.02;101965.63;5075653;28;20036;-41
2022/04/03 06:53:56;;;;;;;7.18;4.78;;;;;;;0.24;69.83;101972.78;5077055;28;20366;-41
2022/04/03 06:56:25;;;;;;;9.25;4.75;;;;;;;0.08;70.70;101957.84;5075479;28;20078;-42
2022/04/03 06:58:51;;;;;;;6.15;5.35;;;;;;;0.23;70.39;101979.88;5075595;28;20051;-41
2022/04/03 07:01:17;;;;;;;7.22;5.47;;;;;;;0.27;70.19;101977.91;5076313;28;20484;-40
2022/04/03 07:03:46;;;;;;;6.00;5.20;;;;;;;0.32;70.09;101976.69;5076704;28;20032;-41
2022/04/03 07:06:13;;;;;;;5.50;4.63;;;;;;;0.34;70.67;101979.25;5092675;28;20094;-41
2022/04/03 07:08:43;;;;;;;10.15;4.60;;;;;;;0.39;71.81;101974.56;5076699;28;20431;-41
2022/04/03 07:11:10;;;;;;;7.40;4.88;;;;;;;0.45;71.04;101979.47;5074353;28;20028;-43
2022/04/03 07:13:35;;;;;;;9.45;5.25;;;;;;;0.49;71.60;101986.25;5076147;28;20339;-41
2022/04/03 07:16:01;;;;;;;12.48;4.88;;;;;;;0.53;71.45;101984.28;5075995;28;20077;-42
2022/04/03 07:18:30;;;;;;;5.25;4.50;;;;;;;0.58;70.64;101977.78;5075687;28;20075;-44
2022/04/03 07:20:58;;;;;;;10.48;4.70;;;;;;;0.64;71.05;101981.03;5092797;28;20028;-46
2022/04/03 07:23:26;;;;;;;9.15;5.05;;;;;;;0.71;71.57;101974.44;5077200;28;20028;-42
2022/04/03 07:25:52;;;;;;;6.30;3.97;;;;;;;0.63;70.67;101956.34;5092248;28;20476;-43
2022/04/03 07:28:18;;;;;;;6.13;4.45;;;;;;;0.70;71.59;101967.41;5076146;28;20040;-46
2022/04/03 07:30:44;;;;;;;8.02;4.45;;;;;;;0.81;70.97;101983.50;5075842;28;20028;-40
2022/04/03 07:33:10;;;;;;;5.68;4.80;;;;;;;0.87;71.26;101982.25;5075305;28;20558;-41
2022/04/03 07:35:37;;;;;;;6.82;5.25;;;;;;;0.90;71.45;101976.81;5076068;28;20032;-44
2022/04/03 07:38:04;;;;;;;6.18;4.97;;;;;;;0.99;71.30;101988.63;5074263;28;20025;-40
2022/04/03 07:40:30;;;;;;;7.88;5.40;;;;;;;0.94;72.09;101976.50;5074141;28;20471;-40
2022/04/03 07:42:56;;;;;;;7.25;4.93;;;;;;;1.10;72.09;101991.47;5075418;28;20032;-40
2022/04/03 07:45:22;;;;;;;5.13;4.50;;;;;;;1.01;71.33;101965.56;5075534;28;20029;-42
2022/04/03 07:47:50;;;;;;;6.60;5.25;;;;;;;1.07;72.41;101963.38;5074060;28;20102;-41
2022/04/03 07:50:19;;;;;;;8.60;5.57;;;;;;;1.23;72.88;101981.81;5075082;28;20501;-43
2022/04/03 07:52:46;;;;;;;11.52;5.35;;;;;;;1.23;71.65;101976.53;5075438;28;20033;-41
2022/04/03 07:55:13;;;;;;;7.28;5.35;;;;;;;1.26;71.90;101973.66;5073876;28;20031;-43
2022/04/03 07:57:39;;;;;;;9.98;4.95;;;;;;;1.42;71.93;101985.97;5073503;28;20090;-42
2022/04/03 08:00:11;;;;;;;7.80;5.20;;;;;;;1.41;71.98;101963.06;5073951;28;20461;-43
2022/04/03 08:02:38;;;;;;;9.82;4.93;;;;;;;1.55;71.95;101974.47;5074669;28;20089;-43
2022/04/03 08:05:06;;;;;;;10.88;5.57;;;;;;;1.61;71.65;101981.19;5075595;28;20400;-40
2022/04/03 08:07:40;;;;;;;11.43;5.55;;;;;;;1.68;71.94;101982.50;5073748;28;20480;-41
2022/04/03 08:10:08;;;;;;;7.55;5.28;;;;;;;1.72;71.55;101981.34;5074975;28;20041;-42
2022/04/03 08:12:35;;;;;;;8.40;5.00;;;;;;;1.77;71.55;101981.06;5073241;28;20082;-41
2022/04/03 08:15:02;;;;;;;9.27;5.85;;;;;;;1.85;71.26;101984.06;5073677;28;20129;-42
2022/04/03 08:17:28;;;;;;;12.50;5.82;;;;;;;1.92;70.71;101981.88;5074899;28;20453;-41
2022/04/03 08:19:54;;;;;;;9.27;6.28;;;;;;;2.00;71.56;101976.91;5075268;28;20040;-41
2022/04/03 08:22:20;;;;;;;7.95;6.10;;;;;;;2.08;71.17;101969.31;5074660;28;20036;-42
2022/04/03 08:24:45;;;;;;;8.40;5.97;;;;;;;2.20;71.26;101974.75;5074290;28;20060;-43
2022/04/03 08:27:12;;;;;;;9.38;6.35;;;;;;;2.29;71.06;101971.50;5073531;28;20469;-41
2022/04/03 08:29:38;;;;;;;7.35;5.70;;;;;;;2.36;70.21;101977.22;5090322;28;20029;-44
2022/04/03 08:32:04;;;;;;;11.63;5.78;;;;;;;2.44;70.67;101974.94;5073969;28;20435;-42
2022/04/03 08:34:30;;;;;;;6.45;5.85;;;;;;;2.51;70.22;101973.56;5074408;28;20060;-42
2022/04/03 08:36:57;;;;;;;7.55;6.15;;;;;;;2.58;70.56;101968.66;5089898;28;20063;-43
2022/04/03 08:39:25;;;;;;;7.22;6.53;;;;;;;2.69;71.07;101974.97;5073330;28;20036;-41
2022/04/03 08:41:53;;;;;;;9.13;6.15;;;;;;;2.82;70.44;101972.31;5090436;28;20068;-42
2022/04/03 08:44:19;;;;;;;11.60;6.20;;;;;;;2.95;69.94;101969.63;5089774;28;20058;-43
2022/04/03 08:46:48;;;;;;;8.32;5.15;;;;;;;3.08;69.53;101980.25;5074491;28;20036;-45
2022/04/03 08:49:19;;;;;;;6.10;5.30;;;;;;;3.16;68.73;101969.97;5074366;28;20028;-42
2022/04/03 08:51:46;;;;;;;14.50;5.78;;;;;;;3.27;68.91;101966.56;5071497;28;20098;-43
2022/04/03 08:54:14;;;;;;;11.23;5.82;;;;;;;3.55;68.35;101976.03;5055731;28;20060;-42
2022/04/03 08:56:42;;;;;;;7.18;5.53;;;;;;;3.73;68.01;101965.03;5073892;28;20447;-44
2022/04/03 08:59:09;;;;;;;6.75;5.80;;;;;;;3.80;67.17;101958.31;5073085;28;20024;-43
2022/04/03 09:01:35;;;;;;;8.48;5.03;;;;;;;4.12;65.97;101963.91;5073953;28;20058;-45
2022/04/03 09:04:00;;;;;;;10.60;6.13;;;;;;;4.33;65.15;101961.47;5074106;28;20380;-42
2022/04/03 09:06:27;;;;;;;11.40;5.88;;;;;;;4.66;64.99;101951.84;5074067;28;20111;-43
2022/04/03 09:08:53;;;;;;;7.07;5.25;;;;;;;4.92;64.54;101954.31;5073530;28;20089;-42
2022/04/03 09:11:19;;;;;;;6.63;4.70;;;;;;;5.41;62.66;101961.09;5055608;28;20426;-42
2022/04/03 09:13:45;;;;;;;9.40;5.18;;;;;;;5.64;62.35;101951.22;5055777;28;20033;-43
2022/04/03 09:16:11;;;;;;;7.30;4.72;;;;;;;5.77;61.59;101951.91;5073104;28;20483;-42
2022/04/03 09:18:51;;;;;;;5.63;4.00;;;;;;;5.38;60.60;101954.16;5074056;28;20111;-46
2022/04/03 09:21:20;;;;;;;6.13;3.70;;;;;;;6.11;59.02;101942.97;5073892;28;20158;-41
2022/04/03 09:24:01;;;;;;;6.05;3.90;;;;;;;8.52;54.26;101947.59;5089694;28;20028;-42
2022/04/03 09:26:29;;;;;;;5.95;3.78;;;;;;;9.16;51.62;101946.03;5072718;28;20035;-43
2022/04/03 09:29:14;;;;;;;4.47;3.83;;;;;;;10.97;46.64;101942.31;5074936;28;20028;-41
2022/04/03 09:31:41;;;;;;;5.55;4.03;;;;;;;12.55;44.03;101929.91;5073328;28;20461;-42
2022/04/03 09:34:08;;;;;;;6.85;4.50;;;;;;;13.62;40.94;101937.66;5074245;28;20041;-41
2022/04/03 09:36:35;;;;;;;4.57;3.70;;;;;;;14.44;38.49;101931.66;5074370;28;20103;-42
2022/04/03 09:39:07;;;;;;;5.18;4.10;;;;;;;15.02;36.09;101921.09;5073840;28;20029;-41
2022/04/03 09:41:53;;;;;;;11.00;4.80;;;;;;;14.69;35.49;101921.44;5055657;28;20037;-41
2022/04/03 09:44:18;;;;;;;5.35;4.85;;;;;;;14.93;34.21;101904.09;5073208;28;20369;-40
2022/04/03 09:46:44;;;;;;;5.80;4.40;;;;;;;14.06;38.08;101924.38;5074647;28;20033;-43
2022/04/03 09:49:26;;;;;;;4.55;3.85;;;;;;;15.77;33.86;101913.72;5074221;28;20035;-41
2022/04/03 09:51:51;;;;;;;4.88;4.35;;;;;;;16.58;33.90;101910.63;5075658;28;20422;-41
2022/04/03 09:54:19;;;;;;;3.85;3.55;;;;;;;17.01;33.84;101897.81;5073155;28;20064;-42
2022/04/03 09:56:44;;;;;;;7.32;3.90;;;;;;;17.83;32.76;101897.00;5072461;28;20174;-42
2022/04/03 09:59:29;;;;;;;5.18;4.13;;;;;;;18.01;28.68;101891.81;5074552;28;20024;-43
2022/04/03 10:01:57;;;;;;;5.35;3.70;;;;;;;18.44;31.38;101887.84;5073168;28;20024;-43
2022/04/03 10:04:23;;;;;;;4.80;4.38;;;;;;;18.86;30.72;101885.72;5077570;28;20094;-45
2022/04/03 10:06:51;;;;;;;4.90;4.50;;;;;;;19.43;29.77;101877.72;5081887;28;20028;-44
2022/04/03 10:09:19;;;;;;;4.50;3.97;;;;;;;19.88;29.39;101883.94;5079190;28;20044;-43
2022/04/03 10:11:57;;;;;;;4.38;3.97;;;;;;;17.36;27.46;101889.56;5080182;28;20063;-43
2022/04/03 10:14:45;;;;;;;5.00;4.50;;;;;;;17.90;29.61;101884.28;5017597;28;20037;-41
2022/04/03 10:17:29;;;;;;;5.13;4.55;;;;;;;19.07;28.43;101879.13;5017990;28;20463;-41
2022/04/03 10:19:55;;;;;;;6.53;4.72;;;;;;;20.10;27.17;101889.88;5056249;28;20041;-41
2022/04/03 10:22:28;;;;;;;5.97;4.32;;;;;;;20.30;26.28;101865.16;5076417;28;20025;-42
2022/04/03 10:24:57;;;;;;;5.60;3.65;;;;;;;19.97;27.83;101879.06;5080535;28;20028;-41
2022/04/03 10:27:35;;;;;;;5.78;4.10;;;;;;;21.07;24.33;101862.00;5076069;28;20067;-42
2022/04/03 10:30:02;;;;;;;4.38;3.28;;;;;;;21.62;25.34;101863.00;5077196;28;20052;-42
2022/04/03 10:32:30;;;;;;;5.85;3.17;;;;;;;22.19;24.59;101854.28;5077575;28;20040;-42
2022/04/03 10:34:59;;;;;;;4.30;3.78;;;;;;;22.07;23.45;101859.75;5076840;28;20473;-44
2022/04/03 10:37:33;;;;;;;4.47;3.50;;;;;;;21.26;25.07;101840.94;5092664;28;20482;-41
2022/04/03 10:43:40;;;;;;;4.10;3.70;;;;;;;20.26;23.09;101855.75;5069489;28;20056;-45
2022/04/03 10:46:07;;;;;;;4.63;3.15;;;;;;;19.23;25.61;101845.97;5076741;28;20036;-42
2022/04/03 10:48:33;;;;;;;4.15;2.78;;;;;;;18.85;27.06;101848.63;5075398;28;20484;-42
2022/04/03 10:51:23;;;;;;;3.13;2.63;;;;;;;18.03;26.59;101842.69;5076365;28;20032;-42
2022/04/03 10:53:54;;;;;;;19.35;7.63;;;;;;;18.43;26.71;101835.34;5076716;28;20448;-43
2022/04/03 10:56:25;;;;;;;7.18;3.75;;;;;;;17.74;26.54;101842.88;5076101;28;20136;-42
2022/04/03 10:58:54;;;;;;;6.03;3.67;;;;;;;16.96;28.33;101840.56;5076089;28;20028;-42
2022/04/03 11:01:24;;;;;;;3.92;3.22;;;;;;;16.48;29.23;101834.25;5076384;28;20025;-42
2022/04/03 11:03:54;;;;;;;3.42;3.13;;;;;;;16.39;28.84;101834.38;5075175;28;20020;-41
2022/04/03 11:06:23;;;;;;;3.33;2.88;;;;;;;16.26;29.72;101837.81;5076510;28;20048;-42
2022/04/03 11:09:05;;;;;;;5.78;3.30;;;;;;;16.45;28.84;101839.03;5075970;28;20051;-42
2022/04/03 11:11:52;;;;;;;3.78;3.47;;;;;;;16.26;29.05;101828.88;5076841;28;20020;-42
2022/04/03 11:21:33;;;;;;;3.38;2.85;;;;;;;17.26;25.94;101823.97;5076534;28;20029;-43
2022/04/03 11:24:12;;;;;;;4.97;2.97;;;;;;;18.14;25.69;101810.25;5078103;28;20021;-44
2022/04/03 11:26:44;;;;;;;3.90;3.15;;;;;;;18.89;25.17;101814.50;5075448;28;20082;-43
2022/04/03 11:29:16;;;;;;;3.40;3.10;;;;;;;19.59;24.61;101805.50;5092660;28;20499;-41
2022/04/03 11:31:51;;;;;;;5.32;2.60;;;;;;;19.98;21.74;101803.53;5077059;28;20046;-41
2022/04/03 11:34:19;;;;;;;2.85;1.92;;;;;;;20.11;23.14;101797.97;5075809;28;20392;-41
2022/04/03 11:36:55;;;;;;;3.22;2.25;;;;;;;20.29;23.28;101798.00;5075878;28;20032;-41
2022/04/03 11:39:42;;;;;;;2.90;2.30;;;;;;;20.58;20.99;101790.13;5076154;28;20032;-42
2022/04/03 11:42:24;;;;;;;2.42;2.22;;;;;;;21.49;21.08;101792.97;5092309;28;20110;-42